Time;durP1;ratioP1;P1;durP2;ratioP2;P2;SDS_P1;SDS_P2;PMS_P1;PMS_P2;Temp;Humidity;BMP_temperature;BMP_pressure;BME280_temperature;BME280_humidity;BME280_pressure;Samples;Min_cycle;Max_cycle;Signal;HPM_P1;HPM_P2
2020/12/12 00:01:54;;;;;;;1999.90;999.90;;;5.00;99.90;;;;;;4981161;28;20689;-83
2020/12/12 00:04:20;;;;;;;1999.90;999.90;;;5.00;99.90;;;;;;4964113;28;20175;-83
2020/12/12 00:06:49;;;;;;;1999.90;999.90;;;5.10;99.90;;;;;;4981341;28;20167;-83
2020/12/12 00:09:17;;;;;;;1999.90;999.90;;;5.00;99.90;;;;;;4981500;28;20634;-83
2020/12/12 00:11:43;;;;;;;1999.90;999.90;;;5.00;99.90;;;;;;4982035;28;20167;-83
2020/12/12 00:14:08;;;;;;;1999.90;999.90;;;5.00;99.90;;;;;;4981634;28;20223;-83
2020/12/12 00:16:37;;;;;;;1999.90;999.90;;;5.00;99.90;;;;;;4981891;28;20167;-83
2020/12/12 00:19:03;;;;;;;1999.90;999.90;;;5.00;99.90;;;;;;4980885;28;20327;-83
2020/12/12 00:21:31;;;;;;;1999.90;999.90;;;5.10;99.90;;;;;;4981600;28;20190;-83
2020/12/12 00:23:57;;;;;;;1999.90;999.90;;;5.10;99.90;;;;;;4981279;28;20250;-83
2020/12/12 00:26:25;;;;;;;1999.90;999.90;;;5.10;99.90;;;;;;4981153;28;20646;-83
2020/12/12 00:28:51;;;;;;;1999.90;999.90;;;5.10;99.90;;;;;;4963535;28;20213;-83
2020/12/12 00:31:20;;;;;;;1999.90;999.90;;;5.00;99.90;;;;;;4981473;28;20174;-83
2020/12/12 00:33:50;;;;;;;1999.90;999.90;;;5.10;99.90;;;;;;4981097;28;20710;-83
2020/12/12 00:36:16;;;;;;;1999.90;999.90;;;5.10;99.90;;;;;;4981454;28;20167;-83
2020/12/12 00:38:45;;;;;;;1999.90;999.90;;;5.10;99.90;;;;;;4981546;28;20234;-83
2020/12/12 00:41:13;;;;;;;1999.90;999.90;;;5.20;99.90;;;;;;4981325;28;20481;-83
2020/12/12 00:43:39;;;;;;;1999.90;999.90;;;5.20;99.90;;;;;;4980151;28;20246;-83
2020/12/12 00:46:05;;;;;;;1999.90;999.90;;;5.20;99.90;;;;;;4981788;28;20187;-83
2020/12/12 00:48:30;;;;;;;1999.90;999.90;;;5.20;99.90;;;;;;4964655;28;20198;-83
2020/12/12 00:50:56;;;;;;;1999.90;999.90;;;5.20;99.90;;;;;;4980913;28;20174;-83
2020/12/12 00:53:21;;;;;;;1999.90;999.90;;;5.20;99.90;;;;;;4964099;28;20179;-83
2020/12/12 00:55:47;;;;;;;1999.90;999.90;;;5.20;99.90;;;;;;4980901;28;20615;-83
2020/12/12 00:58:13;;;;;;;1999.90;999.90;;;5.30;99.90;;;;;;4980801;28;20171;-83
2020/12/12 01:00:38;;;;;;;1999.90;999.90;;;5.20;99.90;;;;;;4980676;28;20167;-83
2020/12/12 01:03:04;;;;;;;1999.90;999.90;;;5.20;99.90;;;;;;4980537;28;20173;-83
2020/12/12 01:05:33;;;;;;;1999.90;999.90;;;5.20;99.90;;;;;;4981790;28;20246;-83
2020/12/12 01:08:00;;;;;;;1999.90;999.90;;;5.20;99.90;;;;;;4964721;28;20174;-83
2020/12/12 01:10:26;;;;;;;1999.90;999.90;;;5.20;99.90;;;;;;4981291;28;20168;-83
2020/12/12 01:12:52;;;;;;;1999.90;999.90;;;5.20;99.90;;;;;;4981300;28;20182;-83
2020/12/12 01:15:18;;;;;;;1999.90;999.90;;;5.20;99.90;;;;;;4981801;28;20411;-83
2020/12/12 01:17:44;;;;;;;1999.90;999.90;;;5.20;99.90;;;;;;4964426;28;20175;-83
2020/12/12 01:20:10;;;;;;;1999.90;999.90;;;5.20;99.90;;;;;;4980631;28;20187;-83
2020/12/12 01:22:35;;;;;;;1999.90;999.90;;;5.30;99.90;;;;;;4981215;28;20167;-83
2020/12/12 01:25:02;;;;;;;1999.90;999.90;;;5.40;99.90;;;;;;4979908;28;20272;-83
2020/12/12 01:27:28;;;;;;;1999.90;999.90;;;5.40;99.90;;;;;;4980758;28;20159;-83
2020/12/12 01:29:53;;;;;;;1999.90;999.90;;;5.30;99.90;;;;;;4981394;28;20227;-83
2020/12/12 01:32:19;;;;;;;1999.90;999.90;;;5.30;99.90;;;;;;4981778;28;20171;-83
2020/12/12 01:34:44;;;;;;;1999.90;999.90;;;5.30;99.90;;;;;;4980994;28;20171;-83
2020/12/12 01:37:10;;;;;;;1999.90;999.90;;;5.30;99.90;;;;;;4981154;28;20190;-83
2020/12/12 01:39:36;;;;;;;1999.90;999.90;;;5.30;99.90;;;;;;4981261;28;20198;-83
2020/12/12 01:42:02;;;;;;;1999.90;999.90;;;5.30;99.90;;;;;;4981419;28;20159;-83
2020/12/12 01:44:27;;;;;;;1999.90;999.90;;;5.30;99.90;;;;;;4980838;28;20250;-83
2020/12/12 01:46:54;;;;;;;1999.90;999.90;;;5.30;99.90;;;;;;4981192;28;20187;-83
2020/12/12 01:49:20;;;;;;;1999.90;999.90;;;5.30;99.90;;;;;;4980345;28;20175;-83
2020/12/12 01:51:48;;;;;;;1999.90;999.90;;;5.30;99.90;;;;;;4980942;28;20171;-83
2020/12/12 01:54:14;;;;;;;1999.90;999.90;;;5.30;99.90;;;;;;4980292;28;20163;-83
2020/12/12 01:56:41;;;;;;;1999.90;999.90;;;5.30;99.90;;;;;;4979638;28;20179;-83
2020/12/12 01:59:06;;;;;;;1999.90;999.90;;;5.30;99.90;;;;;;4980412;28;20191;-83
2020/12/12 02:01:38;;;;;;;1999.90;999.90;;;5.40;99.90;;;;;;4981281;28;20205;-83
2020/12/12 02:04:08;;;;;;;1999.90;999.90;;;5.30;99.90;;;;;;4980378;28;20159;-83
2020/12/12 02:06:37;;;;;;;1999.90;999.90;;;5.30;99.90;;;;;;4980616;28;20192;-83
2020/12/12 02:09:02;;;;;;;1999.90;999.90;;;5.30;99.90;;;;;;4980359;28;20174;-83
2020/12/12 02:11:28;;;;;;;1999.90;999.90;;;5.30;99.90;;;;;;4980296;28;20250;-83
2020/12/12 02:13:57;;;;;;;1999.90;999.90;;;5.40;99.90;;;;;;4963443;28;20182;-83
2020/12/12 02:16:23;;;;;;;1999.90;999.90;;;5.30;99.90;;;;;;4980444;28;20253;-83
2020/12/12 02:18:49;;;;;;;1999.90;999.90;;;5.30;99.90;;;;;;4980207;28;20187;-83
2020/12/12 02:21:15;;;;;;;1999.90;999.90;;;5.30;99.90;;;;;;4979497;28;20230;-83
2020/12/12 02:23:41;;;;;;;1999.90;999.90;;;5.30;99.90;;;;;;4980256;28;20167;-83
2020/12/12 02:26:07;;;;;;;1999.90;999.90;;;5.30;99.90;;;;;;4979702;28;20406;-83
2020/12/12 02:28:50;;;;;;;1999.90;999.90;;;5.30;99.90;;;;;;4962535;28;20194;-83
2020/12/12 02:31:15;;;;;;;1999.90;999.90;;;5.30;99.90;;;;;;4980042;28;20158;-83
2020/12/12 02:33:41;;;;;;;1999.90;999.90;;;5.30;99.90;;;;;;4978552;28;20258;-83
2020/12/12 02:36:07;;;;;;;1999.90;999.90;;;5.30;99.90;;;;;;4979380;28;20167;-83
2020/12/12 02:38:34;;;;;;;1999.90;999.90;;;5.30;99.90;;;;;;4962329;28;20562;-83
2020/12/12 02:41:07;;;;;;;1999.90;999.90;;;5.30;99.90;;;;;;4979887;28;20163;-83
2020/12/12 02:43:32;;;;;;;1999.90;999.90;;;5.30;99.90;;;;;;4962312;28;20184;-83
2020/12/12 02:48:29;;;;;;;1999.90;999.90;;;5.20;99.90;;;;;;4981385;28;20222;-87
2020/12/12 02:50:58;;;;;;;1999.90;999.90;;;5.30;99.90;;;;;;4982772;28;20171;-88
2020/12/12 02:53:23;;;;;;;1999.90;999.90;;;5.30;99.90;;;;;;4982766;28;20167;-87
2020/12/12 02:55:49;;;;;;;1999.90;999.90;;;5.30;99.90;;;;;;4985546;28;20651;-88
2020/12/12 02:58:16;;;;;;;1999.90;999.90;;;5.30;99.90;;;;;;4969328;28;20194;-88
2020/12/12 03:00:42;;;;;;;1999.90;999.90;;;5.30;99.90;;;;;;4967659;28;20250;-88
2020/12/12 03:03:07;;;;;;;1999.90;999.90;;;5.30;99.90;;;;;;4966283;28;20249;-88
2020/12/12 03:05:33;;;;;;;1999.90;999.90;;;5.30;99.90;;;;;;4982920;28;20174;-88
2020/12/12 03:07:59;;;;;;;1999.90;999.90;;;5.30;99.90;;;;;;4985092;28;20166;-88
2020/12/12 03:10:24;;;;;;;1999.90;999.90;;;5.40;99.90;;;;;;5002548;28;20433;-88
2020/12/12 03:12:53;;;;;;;1999.90;999.90;;;5.40;99.90;;;;;;5003455;28;20753;-88
2020/12/12 03:15:19;;;;;;;1999.90;999.90;;;5.40;99.90;;;;;;5002976;28;20162;-87
2020/12/12 03:17:47;;;;;;;1999.90;999.90;;;5.30;99.90;;;;;;4985431;28;20198;-88
2020/12/12 03:20:16;;;;;;;1999.90;999.90;;;5.30;99.90;;;;;;4984877;28;20802;-87
2020/12/12 03:22:41;;;;;;;1999.90;999.90;;;5.30;99.90;;;;;;5003021;28;20182;-88
2020/12/12 03:25:07;;;;;;;1999.90;999.90;;;5.40;99.90;;;;;;5002458;28;20162;-87
2020/12/12 03:27:33;;;;;;;1999.90;999.90;;;5.40;99.90;;;;;;4986093;28;20582;-87
2020/12/12 03:29:58;;;;;;;1999.90;999.90;;;5.40;99.90;;;;;;4985713;28;20198;-89
2020/12/12 03:32:24;;;;;;;1999.90;999.90;;;5.40;99.90;;;;;;5002578;28;20261;-88
2020/12/12 03:34:50;;;;;;;1999.90;999.90;;;5.40;99.90;;;;;;4985146;28;20561;-87
2020/12/12 03:37:16;;;;;;;1999.90;999.90;;;5.40;99.90;;;;;;4984888;28;20256;-87
2020/12/12 03:39:44;;;;;;;1999.90;999.90;;;5.50;99.90;;;;;;4985016;28;20579;-88
2020/12/12 03:42:10;;;;;;;1999.90;999.90;;;5.40;99.90;;;;;;4984964;28;20261;-88
2020/12/12 03:44:36;;;;;;;1999.90;999.90;;;5.50;99.90;;;;;;5002339;28;20190;-88
2020/12/12 03:47:01;;;;;;;1999.90;999.90;;;5.50;99.90;;;;;;5001959;28;20170;-88
2020/12/12 03:49:36;;;;;;;1999.90;999.90;;;5.50;99.90;;;;;;4984206;28;20197;-88
2020/12/12 03:52:02;;;;;;;1999.90;999.90;;;5.50;99.90;;;;;;4984867;28;20478;-88
2020/12/12 03:54:27;;;;;;;1999.90;999.90;;;5.50;99.90;;;;;;4984565;28;20206;-87
2020/12/12 03:56:54;;;;;;;1999.90;999.90;;;5.50;99.90;;;;;;4984962;28;20177;-88
2020/12/12 03:59:22;;;;;;;1999.90;999.90;;;5.50;99.90;;;;;;4983718;28;20442;-88
2020/12/12 04:01:51;;;;;;;1999.90;999.90;;;5.50;99.90;;;;;;4983719;28;20206;-88
2020/12/12 04:04:19;;;;;;;1999.90;999.90;;;5.40;99.90;;;;;;5001734;28;20218;-88
2020/12/12 04:06:45;;;;;;;1999.90;999.90;;;5.50;99.90;;;;;;5002086;28;20158;-87
2020/12/12 04:09:11;;;;;;;1999.90;999.90;;;5.40;99.90;;;;;;5001515;28;20171;-88
2020/12/12 04:11:36;;;;;;;1999.90;999.90;;;5.50;99.90;;;;;;4985169;28;20410;-88
2020/12/12 04:14:05;;;;;;;1999.90;999.90;;;5.50;99.90;;;;;;4985342;28;20205;-88
2020/12/12 04:16:31;;;;;;;1999.90;999.90;;;5.50;99.90;;;;;;4984500;28;20190;-88
2020/12/12 04:18:59;;;;;;;1999.90;999.90;;;5.50;99.90;;;;;;5003000;28;20190;-88
2020/12/12 04:21:25;;;;;;;1999.90;999.90;;;5.50;99.90;;;;;;4988303;28;20171;-89
2020/12/12 04:24:00;;;;;;;1999.90;999.90;;;5.50;99.90;;;;;;4988466;28;20177;-88
2020/12/12 04:26:33;;;;;;;1999.90;999.90;;;5.50;99.90;;;;;;5004590;28;20397;-87
2020/12/12 04:29:05;;;;;;;1999.90;999.90;;;5.50;99.90;;;;;;5005516;28;20162;-88
2020/12/12 04:31:31;;;;;;;1999.90;999.90;;;5.50;99.90;;;;;;5005315;28;20159;-88
2020/12/12 04:34:00;;;;;;;1999.90;999.90;;;5.50;99.90;;;;;;4988346;28;20174;-88
2020/12/12 04:36:26;;;;;;;1999.90;999.90;;;5.50;99.90;;;;;;4987219;28;20170;-87
2020/12/12 04:38:52;;;;;;;1999.90;999.90;;;5.50;99.90;;;;;;5004796;28;20626;-88
2020/12/12 04:41:19;;;;;;;1999.90;999.90;;;5.50;99.90;;;;;;5004741;28;20155;-88
2020/12/12 04:43:45;;;;;;;1999.90;999.90;;;5.50;99.90;;;;;;4987738;28;20258;-88
2020/12/12 04:46:15;;;;;;;1999.90;999.90;;;5.60;99.90;;;;;;5004217;28;20677;-87
2020/12/12 04:48:52;;;;;;;1999.90;999.90;;;5.50;99.90;;;;;;4987706;28;20175;-88
2020/12/12 04:51:19;;;;;;;1999.90;999.90;;;5.50;99.90;;;;;;5004587;28;20618;-88
2020/12/12 04:53:45;;;;;;;1999.90;999.90;;;5.50;99.90;;;;;;5004130;28;20206;-88
2020/12/12 04:56:22;;;;;;;1999.90;999.90;;;5.60;99.90;;;;;;5004021;28;20166;-88
2020/12/12 04:58:52;;;;;;;1999.90;999.90;;;5.60;99.90;;;;;;5003884;28;20221;-88
2020/12/12 05:01:19;;;;;;;1999.90;999.90;;;5.60;99.90;;;;;;4986532;28;20170;-88
2020/12/12 05:03:46;;;;;;;1999.90;999.90;;;5.60;99.90;;;;;;5003781;28;20257;-88
2020/12/12 05:06:12;;;;;;;1999.90;999.90;;;5.60;99.90;;;;;;4985957;28;20166;-87
2020/12/12 05:08:41;;;;;;;1999.90;999.90;;;5.60;99.90;;;;;;5004635;28;20178;-88
2020/12/12 05:11:15;;;;;;;1999.90;999.90;;;5.60;99.90;;;;;;4986418;28;20181;-88
2020/12/12 05:13:41;;;;;;;1999.90;999.90;;;5.60;99.90;;;;;;4986817;28;20171;-88
2020/12/12 05:16:07;;;;;;;1999.90;999.90;;;5.60;99.90;;;;;;4986687;28;20248;-88
2020/12/12 05:18:33;;;;;;;1999.90;999.90;;;5.60;99.90;;;;;;5003706;28;20465;-88
2020/12/12 05:20:59;;;;;;;1999.90;999.90;;;5.60;99.90;;;;;;4985728;28;20418;-88
2020/12/12 05:23:34;;;;;;;1999.90;999.90;;;5.60;99.90;;;;;;5003157;28;20585;-87
2020/12/12 05:26:03;;;;;;;1999.90;999.90;;;5.60;99.90;;;;;;4986997;28;20737;-88
2020/12/12 05:28:35;;;;;;;1999.90;999.90;;;5.70;99.90;;;;;;4986678;28;20229;-88
2020/12/12 05:31:01;;;;;;;1999.90;999.90;;;5.70;99.90;;;;;;5004155;28;20253;-88
2020/12/12 05:33:27;;;;;;;1999.90;999.90;;;5.70;99.90;;;;;;4986208;28;20198;-87
2020/12/12 05:35:53;;;;;;;1999.90;999.90;;;5.70;99.90;;;;;;4986287;28;20163;-87
2020/12/12 05:38:22;;;;;;;1999.90;999.90;;;5.70;99.90;;;;;;5002967;28;20159;-88
2020/12/12 05:40:55;;;;;;;1999.90;999.90;;;5.70;99.90;;;;;;4985850;28;20166;-88
2020/12/12 05:43:36;;;;;;;1999.90;999.90;;;5.80;99.90;;;;;;5003361;28;20193;-88
2020/12/12 05:46:07;;;;;;;1999.90;999.90;;;5.70;99.90;;;;;;4986020;28;20197;-88
2020/12/12 05:48:33;;;;;;;1999.90;999.90;;;5.70;99.90;;;;;;5003071;28;20214;-88
2020/12/12 05:50:59;;;;;;;1999.90;999.90;;;5.70;99.90;;;;;;4985435;28;20175;-88
2020/12/12 05:53:31;;;;;;;1999.90;999.90;;;5.70;99.90;;;;;;4984712;28;20601;-88
2020/12/12 05:55:57;;;;;;;1999.90;999.90;;;5.70;99.90;;;;;;4986951;28;20406;-87
2020/12/12 05:58:27;;;;;;;1999.90;999.90;;;5.80;99.90;;;;;;4986186;28;20193;-88
2020/12/12 06:00:55;;;;;;;1999.90;999.90;;;5.80;99.90;;;;;;4985455;28;20665;-88
2020/12/12 06:03:32;;;;;;;1999.90;999.90;;;5.80;99.90;;;;;;4985332;28;20240;-88
2020/12/12 06:06:13;;;;;;;1999.90;999.90;;;5.80;99.90;;;;;;4985472;28;20165;-87
2020/12/12 06:08:44;;;;;;;1999.90;999.90;;;5.80;99.90;;;;;;5002014;28;20159;-88
2020/12/12 06:11:10;;;;;;;1999.90;999.90;;;5.80;99.90;;;;;;4986031;28;20523;-87
2020/12/12 06:13:38;;;;;;;1999.90;999.90;;;5.90;99.90;;;;;;5001690;28;20251;-88
2020/12/12 06:16:08;;;;;;;1999.90;999.90;;;5.90;99.90;;;;;;5002769;28;20189;-87
2020/12/12 06:19:11;;;;;;;1999.90;999.90;;;5.90;99.90;;;;;;5005140;28;20191;-88
2020/12/12 06:21:48;;;;;;;1999.90;999.90;;;5.80;99.90;;;;;;4993603;28;20197;-89
2020/12/12 06:24:19;;;;;;;1999.90;999.90;;;5.90;99.90;;;;;;5002700;28;20558;-88
2020/12/12 06:27:04;;;;;;;1999.90;999.90;;;5.80;99.90;;;;;;5002145;28;20205;-87
2020/12/12 06:29:40;;;;;;;1999.90;999.90;;;5.80;99.90;;;;;;5001850;28;20146;-88
2020/12/12 06:32:20;;;;;;;1999.90;999.90;;;5.90;99.90;;;;;;5002089;28;20209;-88
2020/12/12 06:34:51;;;;;;;1999.90;999.90;;;5.90;99.90;;;;;;5002174;28;20154;-88
2020/12/12 06:37:31;;;;;;;1999.90;999.90;;;5.90;99.90;;;;;;4984111;28;20244;-88
2020/12/12 06:40:21;;;;;;;1999.90;999.90;;;5.90;99.90;;;;;;4985953;28;20209;-87
2020/12/12 06:43:05;;;;;;;;;;;;;;;;;;;;;
2020/12/12 06:45:40;;;;;;;1999.90;999.90;;;5.90;99.90;;;;;;5001516;28;20253;-88
2020/12/12 06:48:22;;;;;;;1999.90;999.90;;;5.90;99.90;;;;;;4984706;28;20232;-88
2020/12/12 06:50:50;;;;;;;1999.90;999.90;;;5.90;99.90;;;;;;5001799;28;20185;-88
2020/12/12 06:53:23;;;;;;;1999.90;999.90;;;5.90;99.90;;;;;;5001429;28;20171;-88
2020/12/12 06:56:27;;;;;;;1999.90;999.90;;;5.90;99.90;;;;;;4984444;28;20186;-88
2020/12/12 06:59:25;;;;;;;;;;;;;;;;;;;;;
2020/12/12 07:02:06;;;;;;;1999.90;999.90;;;5.80;99.90;;;;;;5000772;28;20238;-89
2020/12/12 07:05:03;;;;;;;1999.90;999.90;;;5.80;99.90;;;;;;4998291;28;20143;-88
2020/12/12 07:07:53;;;;;;;1999.90;999.90;;;5.80;99.90;;;;;;4943781;28;20626;-88
2020/12/12 07:10:19;;;;;;;1999.90;999.90;;;5.70;99.90;;;;;;4972370;28;20179;-88
2020/12/12 07:12:53;;;;;;;1999.90;999.90;;;5.80;99.90;;;;;;4994762;28;20221;-88
2020/12/12 07:16:01;;;;;;;1999.90;999.90;;;5.80;99.90;;;;;;4978072;28;20257;-88
2020/12/12 07:18:30;;;;;;;1999.90;999.90;;;5.80;99.90;;;;;;4967108;28;20186;-88
2020/12/12 07:20:59;;;;;;;1999.90;999.90;;;5.80;99.90;;;;;;4977869;28;20676;-88
2020/12/12 07:34:15;;;;;;;1999.90;999.90;;;5.80;99.90;;;;;;4901027;29;20201;-88
2020/12/12 07:37:09;;;;;;;1999.90;999.90;;;5.80;99.90;;;;;;4904024;29;20224;-88
2020/12/12 07:39:52;;;;;;;1999.90;999.90;;;5.80;99.90;;;;;;4888616;29;20308;-88
2020/12/12 07:43:01;;;;;;;1999.90;999.90;;;5.80;99.90;;;;;;4918822;29;20181;-87
2020/12/12 07:46:08;;;;;;;;;;;;;;;;;;;;;
2020/12/12 07:49:26;;;;;;;;;;;;;;;;;;;;;
2020/12/12 08:02:42;;;;;;;1999.90;999.90;;;5.80;99.90;;;;;;4814594;29;20573;-88
2020/12/12 08:05:47;;;;;;;;;;;;;;;;;;;;;
2020/12/12 08:08:19;;;;;;;1999.90;999.90;;;5.90;99.90;;;;;;4812683;29;20217;-87
2020/12/12 08:11:17;;;;;;;1999.90;999.90;;;5.90;99.90;;;;;;4851630;29;20267;-86
2020/12/12 08:13:46;;;;;;;1999.90;999.90;;;5.90;99.90;;;;;;4970168;28;20178;-87
2020/12/12 08:16:38;;;;;;;1999.90;999.90;;;5.90;99.90;;;;;;4985176;28;20580;-87
2020/12/12 08:19:20;;;;;;;1999.90;999.90;;;5.90;99.90;;;;;;4971623;28;20228;-86
2020/12/12 08:22:08;;;;;;;1999.90;999.90;;;5.90;99.90;;;;;;4986159;28;20163;-86
2020/12/12 08:24:42;;;;;;;1999.90;999.90;;;5.90;99.90;;;;;;5004124;28;20151;-86
2020/12/12 08:27:31;;;;;;;1999.90;999.90;;;5.90;99.90;;;;;;4985955;28;20178;-86
2020/12/12 08:30:15;;;;;;;1999.90;999.90;;;5.90;99.90;;;;;;4988136;28;20169;-86
2020/12/12 08:32:51;;;;;;;1999.90;999.90;;;5.90;99.90;;;;;;4986374;28;20166;-86
2020/12/12 08:35:29;;;;;;;1999.90;999.90;;;6.00;99.90;;;;;;4986862;28;20177;-86
2020/12/12 08:38:20;;;;;;;1999.90;999.90;;;6.10;99.90;;;;;;4987036;28;20223;-86
2020/12/12 08:40:48;;;;;;;1999.90;999.90;;;6.00;99.90;;;;;;4987768;28;20187;-86
2020/12/12 08:43:18;;;;;;;1999.90;999.90;;;6.10;99.90;;;;;;4986482;28;20170;-85
2020/12/12 08:45:55;;;;;;;1999.90;999.90;;;6.10;99.90;;;;;;5004116;28;20163;-85
2020/12/12 08:48:29;;;;;;;1999.90;999.90;;;6.10;99.90;;;;;;5046926;23;20278;-80
2020/12/12 08:51:05;;;;;;;1999.90;999.90;;;6.20;99.90;;;;;;4963248;28;20160;-80
2020/12/12 08:53:44;;;;;;;1999.90;999.90;;;6.10;99.90;;;;;;4963218;28;20161;-79
2020/12/12 08:56:13;;;;;;;1999.90;999.90;;;6.10;99.90;;;;;;4963413;28;20619;-80
2020/12/12 08:58:47;;;;;;;1999.90;999.90;;;6.10;99.90;;;;;;4979880;28;20190;-79
2020/12/12 09:01:16;;;;;;;1999.90;999.90;;;6.10;99.90;;;;;;4980904;28;20147;-79
2020/12/12 09:04:03;;;;;;;1999.90;999.90;;;6.20;99.90;;;;;;4980939;28;20174;-79
2020/12/12 09:06:35;;;;;;;1999.90;999.90;;;6.20;99.90;;;;;;4962876;28;20181;-79
2020/12/12 09:09:27;;;;;;;1999.90;999.90;;;6.20;99.90;;;;;;4963211;28;20622;-79
2020/12/12 09:12:03;;;;;;;1999.90;999.90;;;6.20;99.90;;;;;;4980125;28;20571;-79
2020/12/12 09:14:38;;;;;;;1999.90;999.90;;;6.20;99.90;;;;;;4963217;28;20175;-79
2020/12/12 09:17:09;;;;;;;1999.90;999.90;;;6.20;99.90;;;;;;4962244;28;20174;-79
2020/12/12 09:19:36;;;;;;;1999.90;999.90;;;6.20;99.90;;;;;;4980412;28;20286;-79
2020/12/12 09:22:06;;;;;;;1999.90;999.90;;;6.30;99.90;;;;;;4980006;28;20187;-79
2020/12/12 09:24:35;;;;;;;1999.90;999.90;;;6.30;99.90;;;;;;4980232;28;20163;-79
2020/12/12 09:27:01;;;;;;;1999.90;999.90;;;6.40;99.90;;;;;;4979650;28;20190;-79
2020/12/12 09:29:27;;;;;;;1999.90;999.90;;;6.40;99.90;;;;;;4963166;28;20254;-79
2020/12/12 09:31:55;;;;;;;1999.90;999.90;;;6.40;99.90;;;;;;4979751;28;20658;-79
2020/12/12 09:34:22;;;;;;;1999.90;999.90;;;6.50;99.90;;;;;;4980020;28;20178;-79
2020/12/12 09:36:48;;;;;;;1999.90;999.90;;;6.50;99.90;;;;;;4979760;28;20202;-79
2020/12/12 09:39:14;;;;;;;1999.90;999.90;;;6.50;99.90;;;;;;4979935;28;20187;-79
2020/12/12 09:41:40;;;;;;;1999.90;999.90;;;6.50;99.90;;;;;;4979813;28;20173;-79
2020/12/12 09:44:08;;;;;;;1999.90;999.90;;;6.50;99.90;;;;;;4979285;28;20202;-79
2020/12/12 09:46:37;;;;;;;1999.90;999.90;;;6.60;99.90;;;;;;4978938;28;20179;-79
2020/12/12 09:49:14;;;;;;;1999.90;999.90;;;6.50;99.90;;;;;;4980259;28;20159;-79
2020/12/12 09:51:47;;;;;;;1999.90;999.90;;;6.60;99.90;;;;;;4963507;28;20163;-79
2020/12/12 09:54:16;;;;;;;1999.90;999.90;;;6.60;99.90;;;;;;4980325;28;20178;-79
2020/12/12 09:56:42;;;;;;;1999.90;999.90;;;6.60;99.90;;;;;;4979311;28;20163;-79
2020/12/12 09:59:16;;;;;;;1999.90;999.90;;;6.60;99.90;;;;;;4978790;28;20281;-80
2020/12/12 10:01:43;;;;;;;1999.90;999.90;;;6.60;99.90;;;;;;4979534;28;20611;-79
2020/12/12 10:04:08;;;;;;;1999.90;999.90;;;6.60;99.90;;;;;;4979088;28;20163;-79
2020/12/12 10:06:34;;;;;;;1999.90;999.90;;;6.60;99.90;;;;;;4978724;28;20167;-79
2020/12/12 10:09:00;;;;;;;1999.90;999.90;;;6.70;99.90;;;;;;4977568;28;20171;-79
2020/12/12 10:11:25;;;;;;;1999.90;999.90;;;6.70;99.90;;;;;;4962400;28;20422;-79
2020/12/12 10:13:51;;;;;;;1999.90;999.90;;;6.70;99.90;;;;;;4978885;28;20215;-79
2020/12/12 10:16:19;;;;;;;1999.90;999.90;;;6.60;99.90;;;;;;4978294;28;20627;-79
2020/12/12 10:18:45;;;;;;;1999.90;999.90;;;6.60;99.90;;;;;;4979105;28;20183;-79
2020/12/12 10:21:11;;;;;;;1999.90;999.90;;;6.60;99.90;;;;;;4961020;28;20262;-79
2020/12/12 10:23:37;;;;;;;1999.90;999.90;;;6.60;99.90;;;;;;4979093;28;20170;-79
2020/12/12 10:26:02;;;;;;;1999.90;999.90;;;6.60;99.90;;;;;;4962055;28;20599;-79
2020/12/12 10:28:28;;;;;;;1999.90;999.90;;;6.60;99.90;;;;;;4979036;28;20421;-79
2020/12/12 10:30:54;;;;;;;1999.90;999.90;;;6.60;99.90;;;;;;4979253;28;20152;-79
2020/12/12 10:33:20;;;;;;;1999.90;999.90;;;6.60;99.90;;;;;;4978805;28;20265;-79
2020/12/12 10:35:45;;;;;;;1999.90;999.90;;;6.60;99.90;;;;;;4977601;28;20415;-79
2020/12/12 10:38:12;;;;;;;1999.90;999.90;;;6.60;99.90;;;;;;4960850;28;20639;-79
2020/12/12 10:40:40;;;;;;;1999.90;999.90;;;6.60;99.90;;;;;;4961746;28;20202;-79
2020/12/12 10:43:09;;;;;;;1999.90;999.90;;;6.70;99.90;;;;;;4978981;28;20246;-80
2020/12/12 10:45:35;;;;;;;1999.90;999.90;;;6.80;99.90;;;;;;4961354;28;20226;-80
2020/12/12 10:48:01;;;;;;;1999.90;999.90;;;6.70;99.90;;;;;;4978496;28;20171;-80
2020/12/12 10:50:28;;;;;;;1999.90;999.90;;;6.80;99.90;;;;;;4978453;28;20255;-80
2020/12/12 10:52:54;;;;;;;1999.90;999.90;;;6.80;99.90;;;;;;4962550;28;20419;-79
2020/12/12 10:55:20;;;;;;;1999.90;999.90;;;6.80;99.90;;;;;;4960853;28;20178;-79
2020/12/12 10:57:46;;;;;;;1999.90;999.90;;;6.90;99.90;;;;;;4977912;28;20174;-80
2020/12/12 11:00:12;;;;;;;1999.90;999.90;;;7.00;99.90;;;;;;4977773;28;20976;-79
2020/12/12 11:02:37;;;;;;;1999.90;999.90;;;7.00;99.90;;;;;;4977823;28;20413;-79
2020/12/12 11:05:05;;;;;;;1999.90;999.90;;;7.00;99.90;;;;;;4977718;28;20167;-80
2020/12/12 11:07:30;;;;;;;1999.90;999.90;;;7.00;99.90;;;;;;4978416;28;20159;-80
2020/12/12 11:09:56;;;;;;;1999.90;999.90;;;7.00;99.90;;;;;;4960260;28;20607;-80
2020/12/12 11:12:22;;;;;;;1999.90;999.90;;;7.10;99.90;;;;;;4960239;28;20818;-80
2020/12/12 11:14:48;;;;;;;1999.90;999.90;;;7.10;99.90;;;;;;4978088;28;20321;-80
2020/12/12 11:17:14;;;;;;;1999.90;999.90;;;7.10;99.90;;;;;;4960951;28;20590;-80
2020/12/12 11:19:40;;;;;;;1999.90;999.90;;;7.10;99.90;;;;;;4977803;28;20211;-80
2020/12/12 11:22:06;;;;;;;1999.90;999.90;;;7.10;99.90;;;;;;4978145;28;20706;-80
2020/12/12 11:24:31;;;;;;;1999.90;999.90;;;7.20;99.90;;;;;;4960747;28;20171;-80
2020/12/12 11:27:00;;;;;;;1999.90;999.90;;;7.20;99.90;;;;;;4960170;28;20195;-80
2020/12/12 11:29:25;;;;;;;1999.90;999.90;;;7.20;99.90;;;;;;4980914;28;20194;-80
2020/12/12 11:31:53;;;;;;;1999.90;999.90;;;7.30;99.90;;;;;;4980501;28;20167;-80
2020/12/12 11:34:33;;;;;;;1999.90;999.90;;;7.40;99.90;;;;;;4964929;28;20171;-80
2020/12/12 11:39:41;;;;;;;1999.90;999.90;;;7.50;99.90;;;;;;4981755;28;20191;-80
2020/12/12 11:47:29;;;;;;;1999.90;999.90;;;7.50;99.90;;;;;;4982004;28;20187;-80
2020/12/12 11:49:55;;;;;;;1999.90;999.90;;;7.50;99.90;;;;;;4964347;28;20182;-80
2020/12/12 11:52:21;;;;;;;1999.90;999.90;;;7.50;99.90;;;;;;4981824;28;20164;-79
2020/12/12 11:54:50;;;;;;;1999.90;999.90;;;7.60;99.90;;;;;;4981575;28;20175;-80
2020/12/12 11:57:19;;;;;;;1999.90;999.90;;;7.60;99.90;;;;;;4980036;28;20261;-80
2020/12/12 11:59:45;;;;;;;1999.90;999.90;;;7.70;99.90;;;;;;4981125;28;20195;-80
2020/12/12 12:02:11;;;;;;;1999.90;999.90;;;7.80;99.90;;;;;;4964352;28;20239;-80
2020/12/12 12:04:38;;;;;;;1999.90;999.90;;;7.80;99.90;;;;;;4963780;28;20171;-80
2020/12/12 12:07:05;;;;;;;1999.90;999.90;;;7.80;99.90;;;;;;4981661;28;20170;-80
2020/12/12 12:09:41;;;;;;;1999.90;999.90;;;7.90;99.90;;;;;;4964130;28;20658;-80
2020/12/12 12:12:07;;;;;;;1999.90;999.90;;;8.00;99.90;;;;;;4980626;28;20163;-80
2020/12/12 12:14:34;;;;;;;1999.90;999.90;;;8.00;99.90;;;;;;4981799;28;20175;-79
2020/12/12 12:17:00;;;;;;;1999.90;999.90;;;8.00;99.90;;;;;;4981096;28;20210;-80
2020/12/12 12:19:26;;;;;;;1999.90;999.90;;;8.00;99.90;;;;;;4981346;28;20718;-80
2020/12/12 12:21:52;;;;;;;1999.90;999.90;;;8.00;99.90;;;;;;4981349;28;20398;-80
2020/12/12 12:24:19;;;;;;;1999.90;999.90;;;8.00;99.90;;;;;;4981376;28;20164;-80
2020/12/12 12:26:48;;;;;;;1999.90;999.90;;;8.00;99.90;;;;;;4981737;28;20167;-80
2020/12/12 12:29:15;;;;;;;1999.90;999.90;;;8.00;99.90;;;;;;4981279;28;20185;-79
2020/12/12 12:31:41;;;;;;;1999.90;999.90;;;8.00;99.90;;;;;;4963635;28;20175;-80
2020/12/12 12:34:07;;;;;;;1999.90;999.90;;;7.90;99.90;;;;;;4980747;28;20193;-81
2020/12/12 12:36:33;;;;;;;1999.90;999.90;;;7.90;99.90;;;;;;4980818;28;20658;-79
2020/12/12 12:39:05;;;;;;;1999.90;999.90;;;7.90;99.90;;;;;;4962711;28;20454;-80
2020/12/12 12:41:33;;;;;;;1999.90;999.90;;;7.90;99.90;;;;;;4980448;28;20206;-80
2020/12/12 12:44:04;;;;;;;1999.90;999.90;;;7.90;99.90;;;;;;4963769;28;20167;-79
2020/12/12 12:46:32;;;;;;;1999.90;999.90;;;7.90;99.90;;;;;;4964628;28;20179;-80
2020/12/12 12:48:58;;;;;;;1999.90;999.90;;;7.80;99.90;;;;;;4963661;28;20195;-79
2020/12/12 12:51:30;;;;;;;1999.90;999.90;;;7.90;99.90;;;;;;4963739;28;20171;-79
2020/12/12 12:53:55;;;;;;;1999.90;999.90;;;7.90;99.90;;;;;;4964905;28;20500;-81
2020/12/12 12:56:23;;;;;;;1999.90;999.90;;;7.90;99.90;;;;;;4979280;28;20181;-78
2020/12/12 12:58:49;;;;;;;1999.90;999.90;;;7.90;99.90;;;;;;4963425;28;20877;-79
2020/12/12 13:01:22;;;;;;;1999.90;999.90;;;7.90;99.90;;;;;;4980316;28;20164;-80